sensor_id;sensor_type;location;lat;lon;timestamp;P1;durP1;ratioP1;P2;durP2;ratioP2
40058;SDS011;25763;49.972;8.568;2023-10-09T00:00:51;19.17;;;18.08;;
40058;SDS011;25763;49.972;8.568;2023-10-09T00:03:20;20.60;;;19.40;;
40058;SDS011;25763;49.972;8.568;2023-10-09T00:05:49;20.88;;;19.73;;
40058;SDS011;25763;49.972;8.568;2023-10-09T00:08:18;19.60;;;18.40;;
40058;SDS011;25763;49.972;8.568;2023-10-09T00:10:49;19.08;;;17.88;;
40058;SDS011;25763;49.972;8.568;2023-10-09T00:13:18;21.20;;;19.98;;
40058;SDS011;25763;49.972;8.568;2023-10-09T00:15:44;21.98;;;20.77;;
40058;SDS011;25763;49.972;8.568;2023-10-09T00:18:17;19.15;;;18.05;;
40058;SDS011;25763;49.972;8.568;2023-10-09T00:20:48;20.90;;;19.80;;
40058;SDS011;25763;49.972;8.568;2023-10-09T00:23:19;18.83;;;17.80;;
40058;SDS011;25763;49.972;8.568;2023-10-09T00:25:48;21.67;;;20.48;;
40058;SDS011;25763;49.972;8.568;2023-10-09T00:28:36;20.80;;;19.70;;
40058;SDS011;25763;49.972;8.568;2023-10-09T00:31:03;21.42;;;20.23;;
40058;SDS011;25763;49.972;8.568;2023-10-09T00:33:31;20.02;;;18.92;;
40058;SDS011;25763;49.972;8.568;2023-10-09T00:36:01;19.27;;;18.17;;
40058;SDS011;25763;49.972;8.568;2023-10-09T00:38:39;18.65;;;17.60;;
40058;SDS011;25763;49.972;8.568;2023-10-09T00:41:11;21.77;;;20.35;;
40058;SDS011;25763;49.972;8.568;2023-10-09T00:43:45;19.55;;;18.23;;
40058;SDS011;25763;49.972;8.568;2023-10-09T00:46:11;20.30;;;19.10;;
40058;SDS011;25763;49.972;8.568;2023-10-09T00:48:49;19.77;;;18.48;;
40058;SDS011;25763;49.972;8.568;2023-10-09T00:51:16;20.88;;;19.67;;
40058;SDS011;25763;49.972;8.568;2023-10-09T00:53:47;19.55;;;18.48;;
40058;SDS011;25763;49.972;8.568;2023-10-09T00:56:17;20.08;;;18.95;;
40058;SDS011;25763;49.972;8.568;2023-10-09T00:58:47;18.15;;;17.15;;
40058;SDS011;25763;49.972;8.568;2023-10-09T01:01:21;18.73;;;17.70;;
40058;SDS011;25763;49.972;8.568;2023-10-09T01:03:53;20.45;;;19.25;;
40058;SDS011;25763;49.972;8.568;2023-10-09T01:06:19;21.45;;;20.15;;
40058;SDS011;25763;49.972;8.568;2023-10-09T01:08:52;22.33;;;20.98;;
40058;SDS011;25763;49.972;8.568;2023-10-09T01:11:33;20.65;;;19.45;;
40058;SDS011;25763;49.972;8.568;2023-10-09T01:13:59;20.67;;;19.48;;
40058;SDS011;25763;49.972;8.568;2023-10-09T01:16:34;20.17;;;19.00;;
40058;SDS011;25763;49.972;8.568;2023-10-09T01:18:59;19.48;;;18.38;;
40058;SDS011;25763;49.972;8.568;2023-10-09T01:21:31;20.45;;;19.35;;
40058;SDS011;25763;49.972;8.568;2023-10-09T01:23:56;21.17;;;20.00;;
40058;SDS011;25763;49.972;8.568;2023-10-09T01:26:29;20.60;;;19.50;;
40058;SDS011;25763;49.972;8.568;2023-10-09T01:29:20;20.17;;;19.02;;
40058;SDS011;25763;49.972;8.568;2023-10-09T01:31:50;18.95;;;17.92;;
40058;SDS011;25763;49.972;8.568;2023-10-09T01:34:30;20.40;;;19.20;;
40058;SDS011;25763;49.972;8.568;2023-10-09T01:37:19;20.25;;;19.15;;
40058;SDS011;25763;49.972;8.568;2023-10-09T01:39:52;19.92;;;18.83;;
40058;SDS011;25763;49.972;8.568;2023-10-09T01:42:20;19.67;;;18.58;;
40058;SDS011;25763;49.972;8.568;2023-10-09T01:44:59;21.70;;;20.50;;
40058;SDS011;25763;49.972;8.568;2023-10-09T01:47:41;22.40;;;21.13;;
40058;SDS011;25763;49.972;8.568;2023-10-09T01:50:16;22.33;;;21.13;;
40058;SDS011;25763;49.972;8.568;2023-10-09T01:52:49;21.08;;;19.67;;
40058;SDS011;25763;49.972;8.568;2023-10-09T01:55:19;20.40;;;19.23;;
40058;SDS011;25763;49.972;8.568;2023-10-09T01:58:05;20.77;;;19.67;;
40058;SDS011;25763;49.972;8.568;2023-10-09T02:00:32;21.75;;;20.55;;
40058;SDS011;25763;49.972;8.568;2023-10-09T02:03:00;20.67;;;19.55;;
40058;SDS011;25763;49.972;8.568;2023-10-09T02:05:30;20.50;;;19.38;;
40058;SDS011;25763;49.972;8.568;2023-10-09T02:07:58;21.50;;;20.15;;
40058;SDS011;25763;49.972;8.568;2023-10-09T02:10:24;21.85;;;20.65;;
40058;SDS011;25763;49.972;8.568;2023-10-09T02:12:50;20.48;;;19.38;;
40058;SDS011;25763;49.972;8.568;2023-10-09T02:15:19;21.15;;;19.95;;
40058;SDS011;25763;49.972;8.568;2023-10-09T02:18:04;19.67;;;18.58;;
40058;SDS011;25763;49.972;8.568;2023-10-09T02:20:42;19.67;;;18.60;;
40058;SDS011;25763;49.972;8.568;2023-10-09T02:23:20;19.30;;;18.20;;
40058;SDS011;25763;49.972;8.568;2023-10-09T02:25:50;21.65;;;20.45;;
40058;SDS011;25763;49.972;8.568;2023-10-09T02:28:18;21.58;;;20.27;;
40058;SDS011;25763;49.972;8.568;2023-10-09T02:30:47;20.98;;;19.77;;
40058;SDS011;25763;49.972;8.568;2023-10-09T02:33:15;20.52;;;19.42;;
40058;SDS011;25763;49.972;8.568;2023-10-09T02:35:55;21.20;;;20.05;;
40058;SDS011;25763;49.972;8.568;2023-10-09T02:38:24;21.42;;;20.23;;
40058;SDS011;25763;49.972;8.568;2023-10-09T02:40:51;20.40;;;19.13;;
40058;SDS011;25763;49.972;8.568;2023-10-09T02:43:30;20.30;;;19.20;;
40058;SDS011;25763;49.972;8.568;2023-10-09T02:45:59;20.58;;;19.48;;
40058;SDS011;25763;49.972;8.568;2023-10-09T02:48:37;20.23;;;19.13;;
40058;SDS011;25763;49.972;8.568;2023-10-09T02:51:07;21.13;;;19.92;;
40058;SDS011;25763;49.972;8.568;2023-10-09T02:53:39;22.15;;;20.95;;
40058;SDS011;25763;49.972;8.568;2023-10-09T02:56:05;20.35;;;19.20;;
40058;SDS011;25763;49.972;8.568;2023-10-09T02:58:38;20.40;;;19.25;;
40058;SDS011;25763;49.972;8.568;2023-10-09T03:01:11;20.80;;;19.70;;
40058;SDS011;25763;49.972;8.568;2023-10-09T03:03:38;19.58;;;18.48;;
40058;SDS011;25763;49.972;8.568;2023-10-09T03:06:14;19.50;;;18.40;;
40058;SDS011;25763;49.972;8.568;2023-10-09T03:08:50;22.25;;;20.95;;
40058;SDS011;25763;49.972;8.568;2023-10-09T03:11:15;20.63;;;19.52;;
40058;SDS011;25763;49.972;8.568;2023-10-09T03:13:44;20.00;;;18.90;;
40058;SDS011;25763;49.972;8.568;2023-10-09T03:16:10;24.25;;;22.88;;
40058;SDS011;25763;49.972;8.568;2023-10-09T03:18:41;23.33;;;21.92;;
40058;SDS011;25763;49.972;8.568;2023-10-09T03:21:07;25.63;;;24.23;;
40058;SDS011;25763;49.972;8.568;2023-10-09T03:23:33;26.10;;;24.70;;
40058;SDS011;25763;49.972;8.568;2023-10-09T03:25:59;25.50;;;24.13;;
40058;SDS011;25763;49.972;8.568;2023-10-09T03:28:24;26.27;;;24.88;;
40058;SDS011;25763;49.972;8.568;2023-10-09T03:30:50;26.75;;;25.25;;
40058;SDS011;25763;49.972;8.568;2023-10-09T03:33:16;24.90;;;23.55;;
40058;SDS011;25763;49.972;8.568;2023-10-09T03:35:42;25.27;;;23.90;;
40058;SDS011;25763;49.972;8.568;2023-10-09T03:38:08;26.20;;;24.70;;
40058;SDS011;25763;49.972;8.568;2023-10-09T03:40:46;25.85;;;24.45;;
40058;SDS011;25763;49.972;8.568;2023-10-09T03:43:15;28.23;;;26.73;;
40058;SDS011;25763;49.972;8.568;2023-10-09T03:45:41;31.92;;;29.45;;
40058;SDS011;25763;49.972;8.568;2023-10-09T03:48:17;29.17;;;27.63;;
40058;SDS011;25763;49.972;8.568;2023-10-09T03:50:57;29.83;;;28.00;;
40058;SDS011;25763;49.972;8.568;2023-10-09T03:53:36;29.23;;;27.70;;
40058;SDS011;25763;49.972;8.568;2023-10-09T03:56:03;29.15;;;27.15;;
40058;SDS011;25763;49.972;8.568;2023-10-09T03:58:36;27.35;;;25.88;;
40058;SDS011;25763;49.972;8.568;2023-10-09T04:01:08;26.40;;;25.00;;
40058;SDS011;25763;49.972;8.568;2023-10-09T04:03:40;26.50;;;25.00;;
40058;SDS011;25763;49.972;8.568;2023-10-09T04:06:05;29.85;;;28.27;;
40058;SDS011;25763;49.972;8.568;2023-10-09T04:08:33;29.17;;;27.63;;
40058;SDS011;25763;49.972;8.568;2023-10-09T04:11:00;32.00;;;30.30;;
40058;SDS011;25763;49.972;8.568;2023-10-09T04:13:31;33.78;;;32.00;;
40058;SDS011;25763;49.972;8.568;2023-10-09T04:16:03;34.13;;;32.35;;
40058;SDS011;25763;49.972;8.568;2023-10-09T04:18:48;35.83;;;33.95;;
40058;SDS011;25763;49.972;8.568;2023-10-09T04:21:14;36.83;;;34.42;;
40058;SDS011;25763;49.972;8.568;2023-10-09T04:23:59;32.95;;;31.17;;
40058;SDS011;25763;49.972;8.568;2023-10-09T04:26:37;33.50;;;31.30;;
40058;SDS011;25763;49.972;8.568;2023-10-09T04:29:09;32.85;;;31.05;;
40058;SDS011;25763;49.972;8.568;2023-10-09T04:31:36;33.42;;;31.65;;
40058;SDS011;25763;49.972;8.568;2023-10-09T04:34:02;32.83;;;31.05;;
40058;SDS011;25763;49.972;8.568;2023-10-09T04:36:50;32.28;;;30.50;;
40058;SDS011;25763;49.972;8.568;2023-10-09T04:39:17;32.25;;;30.35;;
40058;SDS011;25763;49.972;8.568;2023-10-09T04:42:01;29.25;;;27.70;;
40058;SDS011;25763;49.972;8.568;2023-10-09T04:44:52;32.50;;;30.77;;
40058;SDS011;25763;49.972;8.568;2023-10-09T04:47:30;31.27;;;29.58;;
40058;SDS011;25763;49.972;8.568;2023-10-09T04:50:06;33.05;;;31.23;;
40058;SDS011;25763;49.972;8.568;2023-10-09T04:52:42;33.42;;;31.63;;
40058;SDS011;25763;49.972;8.568;2023-10-09T04:55:07;31.17;;;29.48;;
40058;SDS011;25763;49.972;8.568;2023-10-09T04:57:42;32.55;;;30.65;;
40058;SDS011;25763;49.972;8.568;2023-10-09T05:03:01;31.58;;;29.77;;
40058;SDS011;25763;49.972;8.568;2023-10-09T05:05:46;32.88;;;30.42;;
40058;SDS011;25763;49.972;8.568;2023-10-09T05:08:12;32.30;;;30.38;;
40058;SDS011;25763;49.972;8.568;2023-10-09T05:11:00;30.70;;;28.85;;
40058;SDS011;25763;49.972;8.568;2023-10-09T05:13:30;30.50;;;28.88;;
40058;SDS011;25763;49.972;8.568;2023-10-09T05:16:12;32.60;;;30.88;;
40058;SDS011;25763;49.972;8.568;2023-10-09T05:18:50;33.22;;;31.42;;
40058;SDS011;25763;49.972;8.568;2023-10-09T05:21:37;32.67;;;30.77;;
40058;SDS011;25763;49.972;8.568;2023-10-09T05:24:08;33.50;;;31.67;;
40058;SDS011;25763;49.972;8.568;2023-10-09T05:26:43;36.38;;;34.45;;
40058;SDS011;25763;49.972;8.568;2023-10-09T05:29:15;35.50;;;32.92;;
40058;SDS011;25763;49.972;8.568;2023-10-09T05:31:57;31.90;;;30.10;;
40058;SDS011;25763;49.972;8.568;2023-10-09T05:34:29;32.67;;;30.88;;
40058;SDS011;25763;49.972;8.568;2023-10-09T05:36:59;34.35;;;32.50;;
40058;SDS011;25763;49.972;8.568;2023-10-09T05:39:50;31.13;;;29.33;;
40058;SDS011;25763;49.972;8.568;2023-10-09T05:42:27;31.17;;;29.38;;
40058;SDS011;25763;49.972;8.568;2023-10-09T05:45:09;30.42;;;28.73;;
40058;SDS011;25763;49.972;8.568;2023-10-09T05:47:54;28.60;;;26.80;;
40058;SDS011;25763;49.972;8.568;2023-10-09T05:50:26;27.13;;;25.65;;
40058;SDS011;25763;49.972;8.568;2023-10-09T05:52:55;28.65;;;26.75;;
40058;SDS011;25763;49.972;8.568;2023-10-09T05:55:30;26.42;;;25.02;;
40058;SDS011;25763;49.972;8.568;2023-10-09T05:58:15;26.08;;;24.58;;
40058;SDS011;25763;49.972;8.568;2023-10-09T06:00:59;26.85;;;25.30;;
40058;SDS011;25763;49.972;8.568;2023-10-09T06:03:33;24.60;;;23.20;;
40058;SDS011;25763;49.972;8.568;2023-10-09T06:06:14;24.10;;;22.73;;
40058;SDS011;25763;49.972;8.568;2023-10-09T06:09:06;24.27;;;22.77;;
40058;SDS011;25763;49.972;8.568;2023-10-09T06:11:41;24.25;;;22.83;;
40058;SDS011;25763;49.972;8.568;2023-10-09T06:14:15;22.33;;;20.92;;
40058;SDS011;25763;49.972;8.568;2023-10-09T06:16:51;22.73;;;21.42;;
40058;SDS011;25763;49.972;8.568;2023-10-09T06:19:36;22.88;;;21.38;;
40058;SDS011;25763;49.972;8.568;2023-10-09T06:22:10;22.42;;;21.02;;
40058;SDS011;25763;49.972;8.568;2023-10-09T06:25:05;21.88;;;20.00;;
40058;SDS011;25763;49.972;8.568;2023-10-09T06:27:34;21.85;;;20.55;;
40058;SDS011;25763;49.972;8.568;2023-10-09T06:29:59;22.10;;;20.90;;
40058;SDS011;25763;49.972;8.568;2023-10-09T06:32:37;21.85;;;20.55;;
40058;SDS011;25763;49.972;8.568;2023-10-09T06:35:03;22.38;;;20.70;;
40058;SDS011;25763;49.972;8.568;2023-10-09T06:37:46;21.45;;;20.23;;
40058;SDS011;25763;49.972;8.568;2023-10-09T06:40:27;23.52;;;22.13;;
40058;SDS011;25763;49.972;8.568;2023-10-09T06:43:16;22.27;;;20.98;;
40058;SDS011;25763;49.972;8.568;2023-10-09T06:45:50;31.23;;;21.88;;
40058;SDS011;25763;49.972;8.568;2023-10-09T06:48:35;22.02;;;20.48;;
40058;SDS011;25763;49.972;8.568;2023-10-09T06:51:03;22.85;;;21.55;;
40058;SDS011;25763;49.972;8.568;2023-10-09T06:53:37;22.60;;;21.30;;
40058;SDS011;25763;49.972;8.568;2023-10-09T06:56:19;23.25;;;21.85;;
40058;SDS011;25763;49.972;8.568;2023-10-09T06:58:54;24.10;;;22.65;;
40058;SDS011;25763;49.972;8.568;2023-10-09T07:01:29;23.50;;;22.05;;
40058;SDS011;25763;49.972;8.568;2023-10-09T07:04:04;23.88;;;22.55;;
40058;SDS011;25763;49.972;8.568;2023-10-09T07:06:44;25.55;;;24.13;;
40058;SDS011;25763;49.972;8.568;2023-10-09T07:09:22;24.90;;;23.45;;
40058;SDS011;25763;49.972;8.568;2023-10-09T07:11:51;24.65;;;23.05;;
40058;SDS011;25763;49.972;8.568;2023-10-09T07:16:59;25.38;;;24.02;;
40058;SDS011;25763;49.972;8.568;2023-10-09T07:19:49;26.05;;;24.42;;
40058;SDS011;25763;49.972;8.568;2023-10-09T07:22:16;26.73;;;25.02;;
40058;SDS011;25763;49.972;8.568;2023-10-09T07:24:45;27.35;;;25.75;;
40058;SDS011;25763;49.972;8.568;2023-10-09T07:30:09;26.25;;;24.73;;
40058;SDS011;25763;49.972;8.568;2023-10-09T07:32:56;25.35;;;23.95;;
40058;SDS011;25763;49.972;8.568;2023-10-09T07:35:45;25.73;;;24.33;;
40058;SDS011;25763;49.972;8.568;2023-10-09T07:38:21;28.15;;;26.63;;
40058;SDS011;25763;49.972;8.568;2023-10-09T07:43:25;23.90;;;22.58;;
40058;SDS011;25763;49.972;8.568;2023-10-09T07:46:13;27.85;;;26.15;;
40058;SDS011;25763;49.972;8.568;2023-10-09T07:48:58;28.77;;;27.10;;
40058;SDS011;25763;49.972;8.568;2023-10-09T07:51:25;30.38;;;28.70;;
40058;SDS011;25763;49.972;8.568;2023-10-09T07:54:00;29.40;;;27.50;;
40058;SDS011;25763;49.972;8.568;2023-10-09T07:56:32;25.65;;;24.13;;
40058;SDS011;25763;49.972;8.568;2023-10-09T07:59:04;26.45;;;24.85;;
40058;SDS011;25763;49.972;8.568;2023-10-09T08:01:35;25.58;;;24.10;;
40058;SDS011;25763;49.972;8.568;2023-10-09T08:04:24;30.75;;;23.77;;
40058;SDS011;25763;49.972;8.568;2023-10-09T08:07:06;25.00;;;23.50;;
40058;SDS011;25763;49.972;8.568;2023-10-09T08:12:33;21.33;;;19.50;;
40058;SDS011;25763;49.972;8.568;2023-10-09T08:15:23;21.67;;;20.48;;
40058;SDS011;25763;49.972;8.568;2023-10-09T08:17:59;26.05;;;24.35;;
40058;SDS011;25763;49.972;8.568;2023-10-09T08:20:43;23.20;;;21.80;;
40058;SDS011;25763;49.972;8.568;2023-10-09T08:23:27;20.33;;;19.17;;
40058;SDS011;25763;49.972;8.568;2023-10-09T08:26:08;22.15;;;20.85;;
40058;SDS011;25763;49.972;8.568;2023-10-09T08:28:40;18.90;;;17.80;;
40058;SDS011;25763;49.972;8.568;2023-10-09T08:31:11;18.38;;;17.38;;
40058;SDS011;25763;49.972;8.568;2023-10-09T08:33:56;20.23;;;19.08;;
40058;SDS011;25763;49.972;8.568;2023-10-09T08:36:26;21.27;;;20.00;;
40058;SDS011;25763;49.972;8.568;2023-10-09T08:39:04;21.08;;;19.67;;
40058;SDS011;25763;49.972;8.568;2023-10-09T08:41:50;21.75;;;20.00;;
40058;SDS011;25763;49.972;8.568;2023-10-09T08:44:17;19.02;;;17.92;;
40058;SDS011;25763;49.972;8.568;2023-10-09T08:46:47;19.42;;;18.33;;
40058;SDS011;25763;49.972;8.568;2023-10-09T08:49:15;17.60;;;16.60;;
40058;SDS011;25763;49.972;8.568;2023-10-09T08:51:41;22.50;;;21.10;;
40058;SDS011;25763;49.972;8.568;2023-10-09T08:54:07;20.00;;;18.83;;
40058;SDS011;25763;49.972;8.568;2023-10-09T08:56:36;22.35;;;20.95;;
40058;SDS011;25763;49.972;8.568;2023-10-09T08:59:04;20.63;;;19.33;;
40058;SDS011;25763;49.972;8.568;2023-10-09T09:01:30;20.00;;;18.88;;
40058;SDS011;25763;49.972;8.568;2023-10-09T09:03:57;21.15;;;19.85;;
40058;SDS011;25763;49.972;8.568;2023-10-09T09:06:23;22.55;;;20.90;;
40058;SDS011;25763;49.972;8.568;2023-10-09T09:08:49;21.55;;;20.35;;
40058;SDS011;25763;49.972;8.568;2023-10-09T09:11:24;20.30;;;19.10;;
40058;SDS011;25763;49.972;8.568;2023-10-09T09:16:21;22.00;;;20.75;;
40058;SDS011;25763;49.972;8.568;2023-10-09T09:19:01;21.88;;;20.48;;
40058;SDS011;25763;49.972;8.568;2023-10-09T09:21:52;19.30;;;18.02;;
40058;SDS011;25763;49.972;8.568;2023-10-09T09:24:24;19.05;;;17.52;;
40058;SDS011;25763;49.972;8.568;2023-10-09T09:26:51;20.27;;;19.10;;
40058;SDS011;25763;49.972;8.568;2023-10-09T09:32:03;19.45;;;18.30;;
40058;SDS011;25763;49.972;8.568;2023-10-09T09:34:49;19.05;;;17.95;;
40058;SDS011;25763;49.972;8.568;2023-10-09T09:37:26;21.98;;;20.67;;
40058;SDS011;25763;49.972;8.568;2023-10-09T09:40:15;21.27;;;20.08;;
40058;SDS011;25763;49.972;8.568;2023-10-09T09:42:54;21.85;;;20.55;;
40058;SDS011;25763;49.972;8.568;2023-10-09T09:45:34;20.52;;;19.42;;
40058;SDS011;25763;49.972;8.568;2023-10-09T09:48:04;23.92;;;22.42;;
40058;SDS011;25763;49.972;8.568;2023-10-09T09:50:35;22.80;;;20.98;;
40058;SDS011;25763;49.972;8.568;2023-10-09T09:53:12;32.17;;;23.45;;
40058;SDS011;25763;49.972;8.568;2023-10-09T09:55:50;23.73;;;22.33;;
40058;SDS011;25763;49.972;8.568;2023-10-09T09:58:23;25.88;;;24.33;;
40058;SDS011;25763;49.972;8.568;2023-10-09T10:00:52;23.70;;;22.40;;
40058;SDS011;25763;49.972;8.568;2023-10-09T10:03:24;26.77;;;24.63;;
40058;SDS011;25763;49.972;8.568;2023-10-09T10:05:54;24.48;;;22.90;;
40058;SDS011;25763;49.972;8.568;2023-10-09T10:08:22;25.58;;;23.48;;
40058;SDS011;25763;49.972;8.568;2023-10-09T10:10:56;27.40;;;25.35;;
40058;SDS011;25763;49.972;8.568;2023-10-09T10:14:02;23.33;;;22.02;;
40058;SDS011;25763;49.972;8.568;2023-10-09T10:16:24;26.13;;;24.45;;
40058;SDS011;25763;49.972;8.568;2023-10-09T10:21:32;28.88;;;27.17;;
40058;SDS011;25763;49.972;8.568;2023-10-09T10:27:15;25.13;;;23.52;;
40058;SDS011;25763;49.972;8.568;2023-10-09T10:29:43;26.58;;;24.92;;
40058;SDS011;25763;49.972;8.568;2023-10-09T10:32:11;22.98;;;21.58;;
40058;SDS011;25763;49.972;8.568;2023-10-09T10:37:12;24.05;;;22.50;;
40058;SDS011;25763;49.972;8.568;2023-10-09T10:39:59;23.42;;;22.10;;
40058;SDS011;25763;49.972;8.568;2023-10-09T10:42:46;22.95;;;21.45;;
40058;SDS011;25763;49.972;8.568;2023-10-09T10:45:22;24.33;;;22.77;;
40058;SDS011;25763;49.972;8.568;2023-10-09T10:47:59;22.55;;;21.02;;
40058;SDS011;25763;49.972;8.568;2023-10-09T10:50:31;20.15;;;18.95;;
40058;SDS011;25763;49.972;8.568;2023-10-09T10:53:11;19.83;;;18.48;;
40058;SDS011;25763;49.972;8.568;2023-10-09T10:55:54;20.92;;;19.38;;
40058;SDS011;25763;49.972;8.568;2023-10-09T10:58:23;18.58;;;17.52;;
40058;SDS011;25763;49.972;8.568;2023-10-09T11:01:00;18.60;;;17.58;;
40058;SDS011;25763;49.972;8.568;2023-10-09T11:03:37;19.63;;;18.35;;
40058;SDS011;25763;49.972;8.568;2023-10-09T11:06:25;24.30;;;19.73;;
40058;SDS011;25763;49.972;8.568;2023-10-09T11:09:04;22.35;;;20.77;;
40058;SDS011;25763;49.972;8.568;2023-10-09T11:11:35;21.48;;;20.25;;
40058;SDS011;25763;49.972;8.568;2023-10-09T11:14:12;24.20;;;22.73;;
40058;SDS011;25763;49.972;8.568;2023-10-09T11:16:42;21.77;;;20.55;;
40058;SDS011;25763;49.972;8.568;2023-10-09T11:19:12;25.70;;;24.27;;
40058;SDS011;25763;49.972;8.568;2023-10-09T11:21:54;25.83;;;24.13;;
40058;SDS011;25763;49.972;8.568;2023-10-09T11:24:25;24.75;;;23.20;;
40058;SDS011;25763;49.972;8.568;2023-10-09T11:26:52;23.83;;;22.23;;
40058;SDS011;25763;49.972;8.568;2023-10-09T11:29:20;28.40;;;26.38;;
40058;SDS011;25763;49.972;8.568;2023-10-09T11:32:06;23.73;;;22.00;;
40058;SDS011;25763;49.972;8.568;2023-10-09T11:34:39;24.55;;;22.27;;
40058;SDS011;25763;49.972;8.568;2023-10-09T11:37:13;21.05;;;19.63;;
40058;SDS011;25763;49.972;8.568;2023-10-09T11:39:54;22.55;;;20.58;;
40058;SDS011;25763;49.972;8.568;2023-10-09T11:42:21;21.23;;;20.02;;
40058;SDS011;25763;49.972;8.568;2023-10-09T11:45:06;24.83;;;23.35;;
40058;SDS011;25763;49.972;8.568;2023-10-09T11:47:49;31.50;;;29.75;;
40058;SDS011;25763;49.972;8.568;2023-10-09T11:53:27;33.60;;;30.70;;
40058;SDS011;25763;49.972;8.568;2023-10-09T11:55:53;34.40;;;32.45;;
40058;SDS011;25763;49.972;8.568;2023-10-09T11:58:21;31.27;;;29.60;;
40058;SDS011;25763;49.972;8.568;2023-10-09T12:03:16;37.65;;;35.33;;
40058;SDS011;25763;49.972;8.568;2023-10-09T12:05:42;41.17;;;38.95;;
40058;SDS011;25763;49.972;8.568;2023-10-09T12:08:09;39.05;;;37.03;;
40058;SDS011;25763;49.972;8.568;2023-10-09T12:10:36;37.47;;;35.40;;
40058;SDS011;25763;49.972;8.568;2023-10-09T12:13:03;42.83;;;39.80;;
40058;SDS011;25763;49.972;8.568;2023-10-09T12:15:31;29.17;;;27.58;;
40058;SDS011;25763;49.972;8.568;2023-10-09T12:18:09;25.17;;;23.30;;
40058;SDS011;25763;49.972;8.568;2023-10-09T12:20:39;23.17;;;21.77;;
40058;SDS011;25763;49.972;8.568;2023-10-09T12:23:12;24.13;;;22.80;;
40058;SDS011;25763;49.972;8.568;2023-10-09T12:25:39;23.10;;;21.80;;
40058;SDS011;25763;49.972;8.568;2023-10-09T12:28:05;25.27;;;23.92;;
40058;SDS011;25763;49.972;8.568;2023-10-09T12:30:31;25.40;;;23.92;;
40058;SDS011;25763;49.972;8.568;2023-10-09T12:33:04;30.20;;;28.65;;
40058;SDS011;25763;49.972;8.568;2023-10-09T12:35:35;29.33;;;27.73;;
40058;SDS011;25763;49.972;8.568;2023-10-09T12:38:04;29.95;;;28.17;;
40058;SDS011;25763;49.972;8.568;2023-10-09T12:43:01;23.55;;;22.25;;
40058;SDS011;25763;49.972;8.568;2023-10-09T12:45:26;22.75;;;21.35;;
40058;SDS011;25763;49.972;8.568;2023-10-09T12:47:55;22.10;;;20.85;;
40058;SDS011;25763;49.972;8.568;2023-10-09T12:50:24;22.77;;;21.50;;
40058;SDS011;25763;49.972;8.568;2023-10-09T12:52:56;22.75;;;21.45;;
40058;SDS011;25763;49.972;8.568;2023-10-09T12:55:22;22.83;;;21.42;;
40058;SDS011;25763;49.972;8.568;2023-10-09T12:57:56;24.02;;;22.73;;
40058;SDS011;25763;49.972;8.568;2023-10-09T13:00:26;24.92;;;23.52;;
40058;SDS011;25763;49.972;8.568;2023-10-09T13:02:51;24.60;;;23.20;;
40058;SDS011;25763;49.972;8.568;2023-10-09T13:05:17;21.83;;;20.52;;
40058;SDS011;25763;49.972;8.568;2023-10-09T13:07:51;37.30;;;35.38;;
40058;SDS011;25763;49.972;8.568;2023-10-09T13:10:18;43.30;;;41.05;;
40058;SDS011;25763;49.972;8.568;2023-10-09T13:12:44;48.45;;;45.90;;
40058;SDS011;25763;49.972;8.568;2023-10-09T13:15:10;28.60;;;27.05;;
40058;SDS011;25763;49.972;8.568;2023-10-09T13:17:36;55.83;;;52.13;;
40058;SDS011;25763;49.972;8.568;2023-10-09T13:20:02;29.60;;;27.90;;
40058;SDS011;25763;49.972;8.568;2023-10-09T13:22:37;33.35;;;31.42;;
40058;SDS011;25763;49.972;8.568;2023-10-09T13:25:04;31.67;;;29.92;;
40058;SDS011;25763;49.972;8.568;2023-10-09T13:27:30;56.30;;;53.30;;
40058;SDS011;25763;49.972;8.568;2023-10-09T13:29:59;71.43;;;67.85;;
40058;SDS011;25763;49.972;8.568;2023-10-09T13:32:33;46.17;;;43.83;;
40058;SDS011;25763;49.972;8.568;2023-10-09T13:35:01;52.45;;;49.78;;
40058;SDS011;25763;49.972;8.568;2023-10-09T13:37:30;56.85;;;53.80;;
40058;SDS011;25763;49.972;8.568;2023-10-09T13:40:02;75.55;;;71.75;;
40058;SDS011;25763;49.972;8.568;2023-10-09T13:42:35;46.53;;;43.45;;
40058;SDS011;25763;49.972;8.568;2023-10-09T13:45:03;75.25;;;70.32;;
40058;SDS011;25763;49.972;8.568;2023-10-09T13:47:43;77.20;;;73.38;;
40058;SDS011;25763;49.972;8.568;2023-10-09T13:50:09;60.30;;;57.25;;
40058;SDS011;25763;49.972;8.568;2023-10-09T13:52:35;43.10;;;40.75;;
40058;SDS011;25763;49.972;8.568;2023-10-09T13:55:04;29.73;;;28.13;;
40058;SDS011;25763;49.972;8.568;2023-10-09T13:57:42;55.65;;;52.85;;
40058;SDS011;25763;49.972;8.568;2023-10-09T14:00:11;77.00;;;72.93;;
40058;SDS011;25763;49.972;8.568;2023-10-09T14:02:58;83.78;;;79.63;;
40058;SDS011;25763;49.972;8.568;2023-10-09T14:05:29;47.60;;;44.90;;
40058;SDS011;25763;49.972;8.568;2023-10-09T14:07:54;88.55;;;84.05;;
40058;SDS011;25763;49.972;8.568;2023-10-09T14:12:55;59.95;;;56.78;;
40058;SDS011;25763;49.972;8.568;2023-10-09T14:15:22;100.97;;;96.00;;
40058;SDS011;25763;49.972;8.568;2023-10-09T14:17:48;81.82;;;77.72;;
40058;SDS011;25763;49.972;8.568;2023-10-09T14:20:20;104.50;;;99.32;;
40058;SDS011;25763;49.972;8.568;2023-10-09T14:23:00;99.65;;;94.60;;
40058;SDS011;25763;49.972;8.568;2023-10-09T14:25:34;95.38;;;90.68;;
40058;SDS011;25763;49.972;8.568;2023-10-09T14:30:34;96.50;;;91.63;;
40058;SDS011;25763;49.972;8.568;2023-10-09T14:33:07;86.50;;;82.07;;
40058;SDS011;25763;49.972;8.568;2023-10-09T14:38:04;80.25;;;76.20;;
40058;SDS011;25763;49.972;8.568;2023-10-09T14:40:36;80.90;;;76.88;;
40058;SDS011;25763;49.972;8.568;2023-10-09T14:43:07;45.20;;;41.42;;
40058;SDS011;25763;49.972;8.568;2023-10-09T14:45:36;91.65;;;86.85;;
40058;SDS011;25763;49.972;8.568;2023-10-09T14:48:02;106.47;;;101.25;;
40058;SDS011;25763;49.972;8.568;2023-10-09T14:50:28;114.43;;;108.75;;
40058;SDS011;25763;49.972;8.568;2023-10-09T14:52:53;111.20;;;105.63;;
40058;SDS011;25763;49.972;8.568;2023-10-09T14:55:18;121.90;;;115.80;;
40058;SDS011;25763;49.972;8.568;2023-10-09T14:57:51;96.13;;;91.35;;
40058;SDS011;25763;49.972;8.568;2023-10-09T15:00:17;100.80;;;95.40;;
40058;SDS011;25763;49.972;8.568;2023-10-09T15:02:48;99.32;;;94.45;;
40058;SDS011;25763;49.972;8.568;2023-10-09T15:05:15;64.45;;;61.15;;
40058;SDS011;25763;49.972;8.568;2023-10-09T15:07:41;27.15;;;25.67;;
40058;SDS011;25763;49.972;8.568;2023-10-09T15:10:07;38.17;;;36.13;;
40058;SDS011;25763;49.972;8.568;2023-10-09T15:12:34;39.42;;;37.33;;
40058;SDS011;25763;49.972;8.568;2023-10-09T15:17:36;43.50;;;41.20;;
40058;SDS011;25763;49.972;8.568;2023-10-09T15:20:02;36.70;;;33.90;;
40058;SDS011;25763;49.972;8.568;2023-10-09T15:22:27;22.02;;;20.73;;
40058;SDS011;25763;49.972;8.568;2023-10-09T15:25:00;22.73;;;21.42;;
40058;SDS011;25763;49.972;8.568;2023-10-09T15:27:25;22.75;;;21.33;;
40058;SDS011;25763;49.972;8.568;2023-10-09T15:29:51;25.38;;;23.83;;
40058;SDS011;25763;49.972;8.568;2023-10-09T15:32:16;23.23;;;21.92;;
40058;SDS011;25763;49.972;8.568;2023-10-09T15:34:47;26.02;;;24.48;;
40058;SDS011;25763;49.972;8.568;2023-10-09T15:37:13;39.38;;;37.30;;
40058;SDS011;25763;49.972;8.568;2023-10-09T15:39:38;59.60;;;56.53;;